sensor_id;sensor_type;location;lat;lon;timestamp;temperature;humidity
12845;DHT22;68700;48.534;9.196;2023-08-06T00:03:08;15.10;99.90
12845;DHT22;68700;48.534;9.196;2023-08-06T00:06:32;15.10;99.90
12845;DHT22;68700;48.534;9.196;2023-08-06T00:09:53;15.10;99.90
12845;DHT22;68700;48.534;9.196;2023-08-06T00:13:15;15.00;99.90
12845;DHT22;68700;48.534;9.196;2023-08-06T00:16:37;14.90;99.90
12845;DHT22;68700;48.534;9.196;2023-08-06T00:19:59;14.80;99.90
12845;DHT22;68700;48.534;9.196;2023-08-06T00:23:26;14.70;99.90
12845;DHT22;68700;48.534;9.196;2023-08-06T00:26:48;14.70;99.90
12845;DHT22;68700;48.534;9.196;2023-08-06T00:30:10;14.60;99.90
12845;DHT22;68700;48.534;9.196;2023-08-06T00:33:32;14.60;99.90
12845;DHT22;68700;48.534;9.196;2023-08-06T00:36:54;14.50;99.90
12845;DHT22;68700;48.534;9.196;2023-08-06T00:40:20;14.50;99.90
12845;DHT22;68700;48.534;9.196;2023-08-06T00:43:42;14.50;99.90
12845;DHT22;68700;48.534;9.196;2023-08-06T00:47:04;14.40;99.90
12845;DHT22;68700;48.534;9.196;2023-08-06T00:50:26;14.40;99.90
12845;DHT22;68700;48.534;9.196;2023-08-06T00:53:49;14.30;99.90
12845;DHT22;68700;48.534;9.196;2023-08-06T00:57:13;14.30;99.90
12845;DHT22;68700;48.534;9.196;2023-08-06T01:00:35;14.30;99.90
12845;DHT22;68700;48.534;9.196;2023-08-06T01:03:58;14.20;99.90
12845;DHT22;68700;48.534;9.196;2023-08-06T01:07:29;14.10;99.90
12845;DHT22;68700;48.534;9.196;2023-08-06T01:11:04;14.00;99.90
12845;DHT22;68700;48.534;9.196;2023-08-06T01:14:36;13.90;99.90
12845;DHT22;68700;48.534;9.196;2023-08-06T01:17:59;13.80;99.90
12845;DHT22;68700;48.534;9.196;2023-08-06T01:21:23;13.70;99.90
12845;DHT22;68700;48.534;9.196;2023-08-06T01:24:48;13.60;99.90
12845;DHT22;68700;48.534;9.196;2023-08-06T01:28:17;13.60;99.90
12845;DHT22;68700;48.534;9.196;2023-08-06T01:31:43;13.50;99.90
12845;DHT22;68700;48.534;9.196;2023-08-06T01:35:06;13.40;99.90
12845;DHT22;68700;48.534;9.196;2023-08-06T01:38:30;13.50;99.90
12845;DHT22;68700;48.534;9.196;2023-08-06T01:41:52;13.40;99.90
12845;DHT22;68700;48.534;9.196;2023-08-06T01:45:14;13.40;99.90
12845;DHT22;68700;48.534;9.196;2023-08-06T01:48:36;13.30;99.90
12845;DHT22;68700;48.534;9.196;2023-08-06T01:51:58;13.30;99.90
12845;DHT22;68700;48.534;9.196;2023-08-06T01:55:21;13.30;99.90
12845;DHT22;68700;48.534;9.196;2023-08-06T01:58:43;13.30;99.90
12845;DHT22;68700;48.534;9.196;2023-08-06T02:02:05;13.30;99.90
12845;DHT22;68700;48.534;9.196;2023-08-06T02:05:27;13.20;99.90
12845;DHT22;68700;48.534;9.196;2023-08-06T02:08:49;13.20;99.90
12845;DHT22;68700;48.534;9.196;2023-08-06T02:12:13;13.10;99.90
12845;DHT22;68700;48.534;9.196;2023-08-06T02:15:35;13.00;99.90
12845;DHT22;68700;48.534;9.196;2023-08-06T02:18:57;13.00;99.90
12845;DHT22;68700;48.534;9.196;2023-08-06T02:22:18;12.90;99.90
12845;DHT22;68700;48.534;9.196;2023-08-06T02:25:40;12.80;99.90
12845;DHT22;68700;48.534;9.196;2023-08-06T02:29:04;12.70;99.90
12845;DHT22;68700;48.534;9.196;2023-08-06T02:32:25;12.70;99.90
12845;DHT22;68700;48.534;9.196;2023-08-06T02:35:47;12.60;99.90
12845;DHT22;68700;48.534;9.196;2023-08-06T02:39:09;12.60;99.90
12845;DHT22;68700;48.534;9.196;2023-08-06T02:42:31;12.50;99.90
12845;DHT22;68700;48.534;9.196;2023-08-06T02:45:56;12.50;99.90
12845;DHT22;68700;48.534;9.196;2023-08-06T02:49:19;12.50;99.90
12845;DHT22;68700;48.534;9.196;2023-08-06T02:52:40;12.50;99.90
12845;DHT22;68700;48.534;9.196;2023-08-06T02:56:02;12.60;99.90
12845;DHT22;68700;48.534;9.196;2023-08-06T02:59:24;12.60;99.90
12845;DHT22;68700;48.534;9.196;2023-08-06T03:02:47;12.60;99.90
12845;DHT22;68700;48.534;9.196;2023-08-06T03:06:09;12.60;99.90
12845;DHT22;68700;48.534;9.196;2023-08-06T03:09:31;12.60;99.90
12845;DHT22;68700;48.534;9.196;2023-08-06T03:12:53;12.70;99.90
12845;DHT22;68700;48.534;9.196;2023-08-06T03:16:15;12.70;99.90
12845;DHT22;68700;48.534;9.196;2023-08-06T03:19:38;12.80;99.90
12845;DHT22;68700;48.534;9.196;2023-08-06T03:23:00;12.80;99.90
12845;DHT22;68700;48.534;9.196;2023-08-06T03:26:21;13.00;99.90
12845;DHT22;68700;48.534;9.196;2023-08-06T03:29:43;13.00;99.90
12845;DHT22;68700;48.534;9.196;2023-08-06T03:33:05;13.10;99.90
12845;DHT22;68700;48.534;9.196;2023-08-06T03:36:28;13.10;99.90
12845;DHT22;68700;48.534;9.196;2023-08-06T03:39:50;13.20;99.90
12845;DHT22;68700;48.534;9.196;2023-08-06T03:43:12;13.20;99.90
12845;DHT22;68700;48.534;9.196;2023-08-06T03:46:34;13.20;99.90
12845;DHT22;68700;48.534;9.196;2023-08-06T03:49:56;13.20;99.90
12845;DHT22;68700;48.534;9.196;2023-08-06T03:53:19;13.20;99.90
12845;DHT22;68700;48.534;9.196;2023-08-06T03:56:41;13.20;99.90
12845;DHT22;68700;48.534;9.196;2023-08-06T04:00:03;13.30;99.90
12845;DHT22;68700;48.534;9.196;2023-08-06T04:03:25;13.40;99.90
12845;DHT22;68700;48.534;9.196;2023-08-06T04:06:47;13.70;99.90
12845;DHT22;68700;48.534;9.196;2023-08-06T04:10:10;13.90;99.90
12845;DHT22;68700;48.534;9.196;2023-08-06T04:13:32;14.00;99.90
12845;DHT22;68700;48.534;9.196;2023-08-06T04:16:54;14.10;99.90
12845;DHT22;68700;48.534;9.196;2023-08-06T04:20:16;14.10;99.90
12845;DHT22;68700;48.534;9.196;2023-08-06T04:23:38;14.00;99.90
12845;DHT22;68700;48.534;9.196;2023-08-06T04:27:01;14.00;99.90
12845;DHT22;68700;48.534;9.196;2023-08-06T04:30:23;13.90;99.90
12845;DHT22;68700;48.534;9.196;2023-08-06T04:33:45;13.90;99.90
12845;DHT22;68700;48.534;9.196;2023-08-06T04:37:07;13.90;99.90
12845;DHT22;68700;48.534;9.196;2023-08-06T04:40:29;13.90;99.90
12845;DHT22;68700;48.534;9.196;2023-08-06T04:43:52;13.90;99.90
12845;DHT22;68700;48.534;9.196;2023-08-06T04:47:14;13.90;99.90
12845;DHT22;68700;48.534;9.196;2023-08-06T04:50:36;13.80;99.90
12845;DHT22;68700;48.534;9.196;2023-08-06T04:53:57;13.80;99.90
12845;DHT22;68700;48.534;9.196;2023-08-06T04:57:19;13.90;99.90
12845;DHT22;68700;48.534;9.196;2023-08-06T05:00:42;13.90;99.90
12845;DHT22;68700;48.534;9.196;2023-08-06T05:04:04;13.90;99.90
12845;DHT22;68700;48.534;9.196;2023-08-06T05:07:26;14.00;99.90
12845;DHT22;68700;48.534;9.196;2023-08-06T05:10:48;14.10;99.90
12845;DHT22;68700;48.534;9.196;2023-08-06T05:14:10;14.20;99.90
12845;DHT22;68700;48.534;9.196;2023-08-06T05:17:33;14.30;99.90
12845;DHT22;68700;48.534;9.196;2023-08-06T05:20:55;14.30;99.90
12845;DHT22;68700;48.534;9.196;2023-08-06T05:24:17;14.60;67.80
12845;DHT22;68700;48.534;9.196;2023-08-06T05:27:39;14.70;46.20
12845;DHT22;68700;48.534;9.196;2023-08-06T05:31:03;14.60;20.00
12845;DHT22;68700;48.534;9.196;2023-08-06T05:34:26;14.60;35.30
12845;DHT22;68700;48.534;9.196;2023-08-06T05:37:49;14.80;47.30
12845;DHT22;68700;48.534;9.196;2023-08-06T05:41:11;15.10;45.20
12845;DHT22;68700;48.534;9.196;2023-08-06T05:44:33;15.20;4.80
12845;DHT22;68700;48.534;9.196;2023-08-06T05:47:55;15.20;1.00
12845;DHT22;68700;48.534;9.196;2023-08-06T05:51:19;15.20;23.80
12845;DHT22;68700;48.534;9.196;2023-08-06T05:54:41;15.40;1.00
12845;DHT22;68700;48.534;9.196;2023-08-06T05:58:03;15.40;5.40
12845;DHT22;68700;48.534;9.196;2023-08-06T06:01:25;15.30;27.10
12845;DHT22;68700;48.534;9.196;2023-08-06T06:04:46;15.10;1.00
12845;DHT22;68700;48.534;9.196;2023-08-06T06:08:10;15.20;1.00
12845;DHT22;68700;48.534;9.196;2023-08-06T06:11:32;15.20;1.00
12845;DHT22;68700;48.534;9.196;2023-08-06T06:14:53;15.20;1.00
12845;DHT22;68700;48.534;9.196;2023-08-06T06:18:15;15.30;1.00
12845;DHT22;68700;48.534;9.196;2023-08-06T06:21:37;15.10;9.90
12845;DHT22;68700;48.534;9.196;2023-08-06T06:25:00;15.00;1.00
12845;DHT22;68700;48.534;9.196;2023-08-06T06:28:22;15.10;2.70
12845;DHT22;68700;48.534;9.196;2023-08-06T06:31:44;15.40;1.00
12845;DHT22;68700;48.534;9.196;2023-08-06T06:35:06;15.40;1.00
12845;DHT22;68700;48.534;9.196;2023-08-06T06:38:28;15.00;1.00
12845;DHT22;68700;48.534;9.196;2023-08-06T06:41:51;15.20;1.00
12845;DHT22;68700;48.534;9.196;2023-08-06T06:45:13;15.10;1.00
12845;DHT22;68700;48.534;9.196;2023-08-06T06:48:35;14.90;1.00
12845;DHT22;68700;48.534;9.196;2023-08-06T06:51:57;15.00;1.00
12845;DHT22;68700;48.534;9.196;2023-08-06T06:55:19;15.10;1.00
12845;DHT22;68700;48.534;9.196;2023-08-06T06:58:42;15.20;1.00
12845;DHT22;68700;48.534;9.196;2023-08-06T07:02:04;15.00;1.00
12845;DHT22;68700;48.534;9.196;2023-08-06T07:05:27;15.00;2.70
12845;DHT22;68700;48.534;9.196;2023-08-06T07:08:48;15.00;3.30
12845;DHT22;68700;48.534;9.196;2023-08-06T07:12:10;15.10;1.00
12845;DHT22;68700;48.534;9.196;2023-08-06T07:15:33;15.40;1.00
12845;DHT22;68700;48.534;9.196;2023-08-06T07:18:55;15.90;1.00
12845;DHT22;68700;48.534;9.196;2023-08-06T07:22:17;15.90;1.00
12845;DHT22;68700;48.534;9.196;2023-08-06T07:25:39;15.80;1.00
12845;DHT22;68700;48.534;9.196;2023-08-06T07:29:01;15.60;1.00
12845;DHT22;68700;48.534;9.196;2023-08-06T07:32:25;15.50;1.00
12845;DHT22;68700;48.534;9.196;2023-08-06T07:35:48;15.10;1.00
12845;DHT22;68700;48.534;9.196;2023-08-06T07:39:10;14.80;96.70
12845;DHT22;68700;48.534;9.196;2023-08-06T07:42:32;14.80;78.50
12845;DHT22;68700;48.534;9.196;2023-08-06T07:45:53;14.80;72.20
12845;DHT22;68700;48.534;9.196;2023-08-06T07:49:17;14.80;99.90
12845;DHT22;68700;48.534;9.196;2023-08-06T07:52:38;14.90;63.40
12845;DHT22;68700;48.534;9.196;2023-08-06T07:56:00;14.90;18.20
12845;DHT22;68700;48.534;9.196;2023-08-06T07:59:22;14.80;41.00
12845;DHT22;68700;48.534;9.196;2023-08-06T08:02:44;15.00;9.40
12845;DHT22;68700;48.534;9.196;2023-08-06T08:06:08;15.00;1.00
12845;DHT22;68700;48.534;9.196;2023-08-06T08:09:29;15.00;1.00
12845;DHT22;68700;48.534;9.196;2023-08-06T08:12:52;15.10;1.00
12845;DHT22;68700;48.534;9.196;2023-08-06T08:16:13;15.30;1.00
12845;DHT22;68700;48.534;9.196;2023-08-06T08:19:35;15.30;1.00
12845;DHT22;68700;48.534;9.196;2023-08-06T08:22:59;15.20;1.00
12845;DHT22;68700;48.534;9.196;2023-08-06T08:26:21;15.20;1.00
12845;DHT22;68700;48.534;9.196;2023-08-06T08:29:44;15.20;1.00
12845;DHT22;68700;48.534;9.196;2023-08-06T08:33:06;15.00;1.00
12845;DHT22;68700;48.534;9.196;2023-08-06T08:36:28;14.80;20.50
12845;DHT22;68700;48.534;9.196;2023-08-06T08:39:51;14.80;33.90
12845;DHT22;68700;48.534;9.196;2023-08-06T08:43:14;14.90;17.20
12845;DHT22;68700;48.534;9.196;2023-08-06T08:46:38;15.10;1.00
12845;DHT22;68700;48.534;9.196;2023-08-06T08:50:01;15.10;1.00
12845;DHT22;68700;48.534;9.196;2023-08-06T08:53:25;15.10;18.20
12845;DHT22;68700;48.534;9.196;2023-08-06T08:56:49;15.50;4.40
12845;DHT22;68700;48.534;9.196;2023-08-06T09:00:11;15.70;1.00
12845;DHT22;68700;48.534;9.196;2023-08-06T09:03:35;15.50;1.00
12845;DHT22;68700;48.534;9.196;2023-08-06T09:06:58;15.40;1.00
12845;DHT22;68700;48.534;9.196;2023-08-06T09:10:21;15.50;1.00
12845;DHT22;68700;48.534;9.196;2023-08-06T09:13:47;15.30;18.40
12845;DHT22;68700;48.534;9.196;2023-08-06T09:17:09;15.30;1.00
12845;DHT22;68700;48.534;9.196;2023-08-06T09:20:35;15.20;20.40
12845;DHT22;68700;48.534;9.196;2023-08-06T09:23:59;15.30;61.90
12845;DHT22;68700;48.534;9.196;2023-08-06T09:27:22;15.30;49.70
12845;DHT22;68700;48.534;9.196;2023-08-06T09:30:47;15.90;59.30
12845;DHT22;68700;48.534;9.196;2023-08-06T09:34:15;16.30;1.00
12845;DHT22;68700;48.534;9.196;2023-08-06T09:37:37;16.70;1.00
12845;DHT22;68700;48.534;9.196;2023-08-06T09:40:59;16.80;1.00
12845;DHT22;68700;48.534;9.196;2023-08-06T09:44:21;16.40;1.00
12845;DHT22;68700;48.534;9.196;2023-08-06T09:47:45;16.10;1.00
12845;DHT22;68700;48.534;9.196;2023-08-06T09:51:08;16.00;1.00
12845;DHT22;68700;48.534;9.196;2023-08-06T09:54:32;15.90;1.00
12845;DHT22;68700;48.534;9.196;2023-08-06T09:57:58;15.70;1.00
12845;DHT22;68700;48.534;9.196;2023-08-06T10:01:20;15.50;19.70
12845;DHT22;68700;48.534;9.196;2023-08-06T10:04:45;15.80;6.80
12845;DHT22;68700;48.534;9.196;2023-08-06T10:08:08;16.00;1.00
12845;DHT22;68700;48.534;9.196;2023-08-06T10:11:30;16.00;1.00
12845;DHT22;68700;48.534;9.196;2023-08-06T10:14:54;15.40;37.80
12845;DHT22;68700;48.534;9.196;2023-08-06T10:18:18;15.10;96.20
12845;DHT22;68700;48.534;9.196;2023-08-06T10:22:10;14.90;72.70
12845;DHT22;68700;48.534;9.196;2023-08-06T10:25:33;14.90;99.90
12845;DHT22;68700;48.534;9.196;2023-08-06T10:28:55;14.90;99.90
12845;DHT22;68700;48.534;9.196;2023-08-06T10:32:17;14.90;99.90
12845;DHT22;68700;48.534;9.196;2023-08-06T10:35:41;15.10;99.90
12845;DHT22;68700;48.534;9.196;2023-08-06T10:39:06;15.30;23.90
12845;DHT22;68700;48.534;9.196;2023-08-06T10:42:34;15.40;99.90
12845;DHT22;68700;48.534;9.196;2023-08-06T10:45:58;15.60;37.10
12845;DHT22;68700;48.534;9.196;2023-08-06T10:49:20;15.60;28.90
12845;DHT22;68700;48.534;9.196;2023-08-06T10:52:42;15.50;75.90
12845;DHT22;68700;48.534;9.196;2023-08-06T10:56:14;15.50;99.90
12845;DHT22;68700;48.534;9.196;2023-08-06T10:59:36;15.50;25.30
12845;DHT22;68700;48.534;9.196;2023-08-06T11:02:57;15.40;99.90
12845;DHT22;68700;48.534;9.196;2023-08-06T11:06:21;15.60;99.90
12845;DHT22;68700;48.534;9.196;2023-08-06T11:09:43;15.70;60.40
12845;DHT22;68700;48.534;9.196;2023-08-06T11:13:06;15.90;63.20
12845;DHT22;68700;48.534;9.196;2023-08-06T11:16:28;16.00;20.00
12845;DHT22;68700;48.534;9.196;2023-08-06T11:19:50;15.70;44.20
12845;DHT22;68700;48.534;9.196;2023-08-06T11:23:13;15.70;80.50
12845;DHT22;68700;48.534;9.196;2023-08-06T11:26:36;15.20;99.90
12845;DHT22;68700;48.534;9.196;2023-08-06T11:30:02;15.00;99.90
12845;DHT22;68700;48.534;9.196;2023-08-06T11:33:25;15.10;99.90
12845;DHT22;68700;48.534;9.196;2023-08-06T11:36:47;14.90;99.90
12845;DHT22;68700;48.534;9.196;2023-08-06T11:40:09;14.70;99.90
12845;DHT22;68700;48.534;9.196;2023-08-06T11:43:32;15.00;99.90
12845;DHT22;68700;48.534;9.196;2023-08-06T11:46:56;15.10;99.90
12845;DHT22;68700;48.534;9.196;2023-08-06T11:50:23;15.20;99.90
12845;DHT22;68700;48.534;9.196;2023-08-06T11:53:48;15.60;99.90
12845;DHT22;68700;48.534;9.196;2023-08-06T11:57:11;16.10;99.90
12845;DHT22;68700;48.534;9.196;2023-08-06T12:00:33;16.20;99.90
12845;DHT22;68700;48.534;9.196;2023-08-06T12:04:00;16.10;99.90
12845;DHT22;68700;48.534;9.196;2023-08-06T12:07:26;16.30;80.50
12845;DHT22;68700;48.534;9.196;2023-08-06T12:10:48;16.50;30.80
12845;DHT22;68700;48.534;9.196;2023-08-06T12:14:11;16.40;1.00
12845;DHT22;68700;48.534;9.196;2023-08-06T12:17:33;16.30;1.00
12845;DHT22;68700;48.534;9.196;2023-08-06T12:20:57;16.40;1.00
12845;DHT22;68700;48.534;9.196;2023-08-06T12:24:19;15.90;1.00
12845;DHT22;68700;48.534;9.196;2023-08-06T12:27:43;16.20;1.00
12845;DHT22;68700;48.534;9.196;2023-08-06T12:31:05;16.10;1.00
12845;DHT22;68700;48.534;9.196;2023-08-06T12:34:26;16.00;1.00
12845;DHT22;68700;48.534;9.196;2023-08-06T12:37:50;16.10;1.00
12845;DHT22;68700;48.534;9.196;2023-08-06T12:41:14;15.90;1.00
12845;DHT22;68700;48.534;9.196;2023-08-06T12:44:36;15.90;1.00
12845;DHT22;68700;48.534;9.196;2023-08-06T12:47:58;16.30;1.00
12845;DHT22;68700;48.534;9.196;2023-08-06T12:51:20;16.20;1.00
12845;DHT22;68700;48.534;9.196;2023-08-06T12:54:44;16.20;1.00
12845;DHT22;68700;48.534;9.196;2023-08-06T12:58:06;16.10;1.00
12845;DHT22;68700;48.534;9.196;2023-08-06T13:01:28;15.70;1.00
12845;DHT22;68700;48.534;9.196;2023-08-06T13:04:50;16.00;1.00
12845;DHT22;68700;48.534;9.196;2023-08-06T13:08:12;16.00;1.00
12845;DHT22;68700;48.534;9.196;2023-08-06T13:11:35;16.20;1.00
12845;DHT22;68700;48.534;9.196;2023-08-06T13:14:58;16.30;1.00
12845;DHT22;68700;48.534;9.196;2023-08-06T13:18:20;16.50;1.00
12845;DHT22;68700;48.534;9.196;2023-08-06T13:22:03;16.70;1.00
12845;DHT22;68700;48.534;9.196;2023-08-06T13:25:27;17.00;1.00
12845;DHT22;68700;48.534;9.196;2023-08-06T13:28:51;16.90;1.00
12845;DHT22;68700;48.534;9.196;2023-08-06T13:32:13;16.90;1.00
12845;DHT22;68700;48.534;9.196;2023-08-06T13:35:35;17.10;1.00
12845;DHT22;68700;48.534;9.196;2023-08-06T13:38:56;17.20;1.00
12845;DHT22;68700;48.534;9.196;2023-08-06T13:42:18;17.70;1.00
12845;DHT22;68700;48.534;9.196;2023-08-06T13:45:41;17.30;1.00
12845;DHT22;68700;48.534;9.196;2023-08-06T13:49:03;16.80;1.00
12845;DHT22;68700;48.534;9.196;2023-08-06T13:52:26;16.60;1.00
12845;DHT22;68700;48.534;9.196;2023-08-06T13:55:47;16.30;1.00
12845;DHT22;68700;48.534;9.196;2023-08-06T13:59:09;16.10;1.00
12845;DHT22;68700;48.534;9.196;2023-08-06T14:02:35;16.00;1.00
12845;DHT22;68700;48.534;9.196;2023-08-06T14:05:57;16.00;1.00
12845;DHT22;68700;48.534;9.196;2023-08-06T14:09:19;16.00;1.00
12845;DHT22;68700;48.534;9.196;2023-08-06T14:12:40;16.10;1.00
12845;DHT22;68700;48.534;9.196;2023-08-06T14:16:03;16.20;1.00
12845;DHT22;68700;48.534;9.196;2023-08-06T14:19:26;16.30;1.00
12845;DHT22;68700;48.534;9.196;2023-08-06T14:22:48;16.50;1.00
12845;DHT22;68700;48.534;9.196;2023-08-06T14:26:09;16.40;1.00
12845;DHT22;68700;48.534;9.196;2023-08-06T14:29:32;16.30;1.00
12845;DHT22;68700;48.534;9.196;2023-08-06T14:32:54;16.10;1.00
12845;DHT22;68700;48.534;9.196;2023-08-06T14:36:17;16.10;1.00
12845;DHT22;68700;48.534;9.196;2023-08-06T14:39:40;16.00;1.00
12845;DHT22;68700;48.534;9.196;2023-08-06T14:43:02;15.30;1.00
12845;DHT22;68700;48.534;9.196;2023-08-06T14:46:24;14.80;44.10
12845;DHT22;68700;48.534;9.196;2023-08-06T14:49:46;15.00;7.00
12845;DHT22;68700;48.534;9.196;2023-08-06T14:53:11;15.10;7.90
12845;DHT22;68700;48.534;9.196;2023-08-06T14:56:33;15.00;2.50
12845;DHT22;68700;48.534;9.196;2023-08-06T14:59:55;14.80;1.00
12845;DHT22;68700;48.534;9.196;2023-08-06T15:03:17;14.90;1.00
12845;DHT22;68700;48.534;9.196;2023-08-06T15:06:39;15.30;1.00
12845;DHT22;68700;48.534;9.196;2023-08-06T15:10:03;16.00;1.00
12845;DHT22;68700;48.534;9.196;2023-08-06T15:13:25;16.40;1.00
12845;DHT22;68700;48.534;9.196;2023-08-06T15:16:48;15.80;1.00
12845;DHT22;68700;48.534;9.196;2023-08-06T15:20:12;15.40;1.00
12845;DHT22;68700;48.534;9.196;2023-08-06T15:23:34;15.20;1.00
12845;DHT22;68700;48.534;9.196;2023-08-06T15:26:57;15.30;1.00
12845;DHT22;68700;48.534;9.196;2023-08-06T15:30:19;15.30;1.00
12845;DHT22;68700;48.534;9.196;2023-08-06T15:33:41;15.40;1.00
12845;DHT22;68700;48.534;9.196;2023-08-06T15:37:04;15.60;1.00
12845;DHT22;68700;48.534;9.196;2023-08-06T15:40:25;15.70;1.00
12845;DHT22;68700;48.534;9.196;2023-08-06T15:43:49;15.90;1.00
12845;DHT22;68700;48.534;9.196;2023-08-06T15:47:11;16.00;1.00
12845;DHT22;68700;48.534;9.196;2023-08-06T15:50:33;15.80;1.00
12845;DHT22;68700;48.534;9.196;2023-08-06T15:53:55;16.50;1.00
12845;DHT22;68700;48.534;9.196;2023-08-06T15:57:16;17.10;1.00
12845;DHT22;68700;48.534;9.196;2023-08-06T16:00:40;17.50;1.00
12845;DHT22;68700;48.534;9.196;2023-08-06T16:04:02;17.60;1.00
12845;DHT22;68700;48.534;9.196;2023-08-06T16:07:24;17.00;1.00
12845;DHT22;68700;48.534;9.196;2023-08-06T16:10:46;16.50;1.00
12845;DHT22;68700;48.534;9.196;2023-08-06T16:14:08;16.30;1.00
12845;DHT22;68700;48.534;9.196;2023-08-06T16:17:31;16.50;1.00
12845;DHT22;68700;48.534;9.196;2023-08-06T16:20:53;16.30;1.00
12845;DHT22;68700;48.534;9.196;2023-08-06T16:24:15;16.40;1.00
12845;DHT22;68700;48.534;9.196;2023-08-06T16:27:37;16.30;1.00
12845;DHT22;68700;48.534;9.196;2023-08-06T16:30:58;15.90;1.00
12845;DHT22;68700;48.534;9.196;2023-08-06T16:34:22;16.50;1.00
12845;DHT22;68700;48.534;9.196;2023-08-06T16:37:45;16.50;1.00
12845;DHT22;68700;48.534;9.196;2023-08-06T16:41:08;16.40;1.00
12845;DHT22;68700;48.534;9.196;2023-08-06T16:44:30;16.30;1.00
12845;DHT22;68700;48.534;9.196;2023-08-06T16:47:52;16.40;1.00
12845;DHT22;68700;48.534;9.196;2023-08-06T16:51:15;16.50;1.00
12845;DHT22;68700;48.534;9.196;2023-08-06T16:54:37;16.40;1.00
12845;DHT22;68700;48.534;9.196;2023-08-06T16:57:59;16.20;1.00
12845;DHT22;68700;48.534;9.196;2023-08-06T17:01:21;16.20;1.00
12845;DHT22;68700;48.534;9.196;2023-08-06T17:04:43;15.60;1.00
12845;DHT22;68700;48.534;9.196;2023-08-06T17:08:07;15.30;1.00
12845;DHT22;68700;48.534;9.196;2023-08-06T17:11:31;15.10;1.00
12845;DHT22;68700;48.534;9.196;2023-08-06T17:14:53;14.90;1.00
12845;DHT22;68700;48.534;9.196;2023-08-06T17:18:15;14.90;1.00
12845;DHT22;68700;48.534;9.196;2023-08-06T17:21:37;14.80;1.00
12845;DHT22;68700;48.534;9.196;2023-08-06T17:25:01;14.70;1.00
12845;DHT22;68700;48.534;9.196;2023-08-06T17:28:23;14.50;1.00
12845;DHT22;68700;48.534;9.196;2023-08-06T17:31:44;14.50;1.00
12845;DHT22;68700;48.534;9.196;2023-08-06T17:35:07;14.50;1.00
12845;DHT22;68700;48.534;9.196;2023-08-06T17:38:28;14.30;1.00
12845;DHT22;68700;48.534;9.196;2023-08-06T17:42:09;14.20;1.00
12845;DHT22;68700;48.534;9.196;2023-08-06T17:45:31;14.20;1.00
12845;DHT22;68700;48.534;9.196;2023-08-06T17:48:53;14.10;1.00
12845;DHT22;68700;48.534;9.196;2023-08-06T17:52:17;14.00;1.00
12845;DHT22;68700;48.534;9.196;2023-08-06T17:55:39;13.90;1.00
12845;DHT22;68700;48.534;9.196;2023-08-06T17:59:02;14.00;1.00
12845;DHT22;68700;48.534;9.196;2023-08-06T18:02:24;14.10;1.00
12845;DHT22;68700;48.534;9.196;2023-08-06T18:05:46;13.90;1.00
12845;DHT22;68700;48.534;9.196;2023-08-06T18:09:07;13.90;1.00
12845;DHT22;68700;48.534;9.196;2023-08-06T18:12:30;14.00;1.00
12845;DHT22;68700;48.534;9.196;2023-08-06T18:15:53;14.00;1.00
12845;DHT22;68700;48.534;9.196;2023-08-06T18:19:15;14.10;1.00
12845;DHT22;68700;48.534;9.196;2023-08-06T18:22:37;14.00;1.00
12845;DHT22;68700;48.534;9.196;2023-08-06T18:25:59;13.90;1.00
12845;DHT22;68700;48.534;9.196;2023-08-06T18:29:21;13.80;1.00
12845;DHT22;68700;48.534;9.196;2023-08-06T18:32:44;13.80;1.00
12845;DHT22;68700;48.534;9.196;2023-08-06T18:36:06;13.80;1.00
12845;DHT22;68700;48.534;9.196;2023-08-06T18:39:28;13.80;1.00
12845;DHT22;68700;48.534;9.196;2023-08-06T18:42:50;13.80;1.00
12845;DHT22;68700;48.534;9.196;2023-08-06T18:46:11;13.70;1.00
12845;DHT22;68700;48.534;9.196;2023-08-06T18:49:35;13.70;1.00
12845;DHT22;68700;48.534;9.196;2023-08-06T18:52:56;13.70;1.00
12845;DHT22;68700;48.534;9.196;2023-08-06T18:56:19;13.70;1.00
12845;DHT22;68700;48.534;9.196;2023-08-06T18:59:41;13.70;1.00
12845;DHT22;68700;48.534;9.196;2023-08-06T19:03:03;13.70;1.00
12845;DHT22;68700;48.534;9.196;2023-08-06T19:06:26;13.70;1.00
12845;DHT22;68700;48.534;9.196;2023-08-06T19:09:49;13.70;1.00
12845;DHT22;68700;48.534;9.196;2023-08-06T19:13:11;13.60;1.00
12845;DHT22;68700;48.534;9.196;2023-08-06T19:16:33;13.50;1.00
12845;DHT22;68700;48.534;9.196;2023-08-06T19:19:55;13.50;1.00
12845;DHT22;68700;48.534;9.196;2023-08-06T19:23:18;13.40;1.00
12845;DHT22;68700;48.534;9.196;2023-08-06T19:26:40;13.40;1.00
12845;DHT22;68700;48.534;9.196;2023-08-06T19:30:03;13.30;1.00
12845;DHT22;68700;48.534;9.196;2023-08-06T19:33:25;13.40;1.00
12845;DHT22;68700;48.534;9.196;2023-08-06T19:36:47;13.40;1.00
12845;DHT22;68700;48.534;9.196;2023-08-06T19:40:10;13.30;1.00
12845;DHT22;68700;48.534;9.196;2023-08-06T19:43:34;13.30;1.00
12845;DHT22;68700;48.534;9.196;2023-08-06T19:46:56;13.30;1.00
12845;DHT22;68700;48.534;9.196;2023-08-06T19:50:18;13.40;1.00
12845;DHT22;68700;48.534;9.196;2023-08-06T19:53:40;13.50;1.00
12845;DHT22;68700;48.534;9.196;2023-08-06T19:57:05;13.50;1.00
12845;DHT22;68700;48.534;9.196;2023-08-06T20:00:27;13.50;1.00
12845;DHT22;68700;48.534;9.196;2023-08-06T20:03:49;13.50;1.00
12845;DHT22;68700;48.534;9.196;2023-08-06T20:07:11;13.50;1.00
12845;DHT22;68700;48.534;9.196;2023-08-06T20:10:33;13.40;1.00
12845;DHT22;68700;48.534;9.196;2023-08-06T20:13:56;13.40;1.00
12845;DHT22;68700;48.534;9.196;2023-08-06T20:17:18;13.40;1.00
12845;DHT22;68700;48.534;9.196;2023-08-06T20:20:39;13.40;1.00
12845;DHT22;68700;48.534;9.196;2023-08-06T20:24:01;13.20;1.00
12845;DHT22;68700;48.534;9.196;2023-08-06T20:27:23;13.20;1.00
12845;DHT22;68700;48.534;9.196;2023-08-06T20:30:46;13.20;1.00
12845;DHT22;68700;48.534;9.196;2023-08-06T20:34:08;13.20;1.00
12845;DHT22;68700;48.534;9.196;2023-08-06T20:37:30;13.20;1.00
12845;DHT22;68700;48.534;9.196;2023-08-06T20:40:53;13.20;1.00
12845;DHT22;68700;48.534;9.196;2023-08-06T20:44:15;13.30;1.00
12845;DHT22;68700;48.534;9.196;2023-08-06T20:47:39;13.30;1.00
12845;DHT22;68700;48.534;9.196;2023-08-06T20:51:00;13.20;1.00
12845;DHT22;68700;48.534;9.196;2023-08-06T20:54:22;13.20;1.00
12845;DHT22;68700;48.534;9.196;2023-08-06T20:57:44;13.10;1.00
12845;DHT22;68700;48.534;9.196;2023-08-06T21:01:06;13.10;1.00
12845;DHT22;68700;48.534;9.196;2023-08-06T21:04:29;13.00;1.00
12845;DHT22;68700;48.534;9.196;2023-08-06T21:07:51;12.80;1.00
12845;DHT22;68700;48.534;9.196;2023-08-06T21:11:13;12.80;1.00
12845;DHT22;68700;48.534;9.196;2023-08-06T21:14:36;12.70;1.00
12845;DHT22;68700;48.534;9.196;2023-08-06T21:17:58;12.60;1.00
12845;DHT22;68700;48.534;9.196;2023-08-06T21:21:21;12.50;1.00
12845;DHT22;68700;48.534;9.196;2023-08-06T21:24:43;12.40;1.00
12845;DHT22;68700;48.534;9.196;2023-08-06T21:28:04;12.30;1.00
12845;DHT22;68700;48.534;9.196;2023-08-06T21:31:26;12.20;38.70
12845;DHT22;68700;48.534;9.196;2023-08-06T21:34:48;12.10;40.90